createdAt,value
2018-09-09T00:01:53.843Z,6.90
2018-09-09T00:04:24.425Z,6.63
2018-09-09T00:06:53.025Z,6.90
2018-09-09T00:09:26.789Z,6.53
2018-09-09T00:11:55.743Z,7.10
2018-09-09T00:14:24.944Z,6.47
2018-09-09T00:16:53.555Z,7.50
2018-09-09T00:19:23.195Z,7.10
2018-09-09T00:21:51.790Z,6.97
2018-09-09T00:24:20.395Z,7.27
2018-09-09T00:26:49.002Z,8.07
2018-09-09T00:29:17.613Z,6.97
2018-09-09T00:31:46.220Z,6.23
2018-09-09T00:34:14.877Z,6.57
2018-09-09T00:36:43.542Z,7.53
2018-09-09T00:39:12.146Z,6.57
2018-09-09T00:41:40.724Z,6.63
2018-09-09T00:44:09.341Z,6.70
2018-09-09T00:46:37.949Z,6.60
2018-09-09T00:49:11.818Z,7.20
2018-09-09T00:51:45.585Z,6.90
2018-09-09T00:54:14.232Z,6.40
2018-09-09T00:56:42.849Z,7.70
2018-09-09T00:59:11.478Z,6.57
2018-09-09T01:01:40.039Z,7.20
2018-09-09T01:04:08.640Z,7.70
2018-09-09T01:06:37.222Z,7.33
2018-09-09T01:09:08.002Z,7.17
2018-09-09T01:11:36.605Z,7.70
2018-09-09T01:14:05.520Z,7.27
2018-09-09T01:16:34.213Z,7.70
2018-09-09T01:19:02.824Z,7.00
2018-09-09T01:21:31.465Z,8.10
2018-09-09T01:24:00.216Z,7.83
2018-09-09T01:26:29.701Z,8.20
2018-09-09T01:28:58.727Z,7.67
2018-09-09T01:31:27.390Z,7.17
2018-09-09T01:33:56.131Z,7.53
2018-09-09T01:36:24.699Z,8.07
2018-09-09T01:38:53.337Z,8.20
2018-09-09T01:41:21.958Z,8.17
2018-09-09T01:43:50.577Z,7.13
2018-09-09T01:46:19.225Z,7.83
2018-09-09T01:48:47.818Z,7.87
2018-09-09T01:51:16.393Z,7.43
2018-09-09T01:53:45.013Z,7.50
2018-09-09T01:56:13.628Z,7.93
2018-09-09T01:58:42.266Z,8.30
2018-09-09T02:01:10.900Z,7.80
2018-09-09T02:03:39.537Z,7.60
2018-09-09T02:06:08.213Z,7.73
2018-09-09T02:08:36.847Z,7.90
2018-09-09T02:11:05.487Z,9.30
2018-09-09T02:13:34.751Z,8.57
2018-09-09T02:16:03.394Z,9.00
2018-09-09T02:18:32.146Z,8.67
2018-09-09T02:21:00.724Z,9.33
2018-09-09T02:23:29.318Z,8.80
2018-09-09T02:25:57.988Z,9.50
2018-09-09T02:28:26.560Z,8.20
2018-09-09T02:30:55.148Z,10.00
2018-09-09T02:33:23.906Z,9.10
2018-09-09T02:35:52.513Z,9.47
2018-09-09T02:38:21.176Z,9.20
2018-09-09T02:40:49.797Z,8.53
2018-09-09T02:43:18.403Z,8.50
2018-09-09T02:45:47.073Z,8.90
2018-09-09T02:48:15.686Z,8.20
2018-09-09T02:50:44.293Z,8.10
2018-09-09T02:53:12.866Z,8.37
2018-09-09T02:55:44.469Z,8.27
2018-09-09T02:58:14.729Z,8.00
2018-09-09T03:00:43.345Z,8.33
2018-09-09T03:03:11.930Z,8.40
2018-09-09T03:05:40.813Z,8.50
2018-09-09T03:08:09.570Z,8.23
2018-09-09T03:10:39.815Z,8.90
2018-09-09T03:13:08.418Z,8.80
2018-09-09T03:15:37.174Z,9.40
2018-09-09T03:18:05.807Z,8.87
2018-09-09T03:20:34.461Z,7.83
2018-09-09T03:23:03.085Z,9.17
2018-09-09T03:25:31.672Z,8.00
2018-09-09T03:28:00.305Z,9.43
2018-09-09T03:30:28.906Z,8.40
2018-09-09T03:32:57.504Z,8.10
2018-09-09T03:35:26.104Z,8.30
2018-09-09T03:37:54.677Z,8.13
2018-09-09T03:40:23.310Z,7.97
2018-09-09T03:42:51.906Z,8.77
2018-09-09T03:45:20.541Z,9.00
2018-09-09T03:47:49.183Z,8.60
2018-09-09T03:50:17.773Z,9.60
2018-09-09T03:52:46.490Z,8.77
2018-09-09T03:55:15.102Z,8.97
2018-09-09T03:57:43.726Z,8.93
2018-09-09T04:00:12.330Z,10.00
2018-09-09T04:02:40.978Z,10.00
2018-09-09T04:05:09.581Z,9.33
2018-09-09T04:07:38.270Z,9.20
2018-09-09T04:10:07.112Z,9.40
2018-09-09T04:12:35.670Z,10.10
2018-09-09T04:15:04.313Z,10.20
2018-09-09T04:17:32.929Z,9.47
2018-09-09T04:20:01.527Z,9.77
2018-09-09T04:22:30.143Z,9.70
2018-09-09T04:24:58.822Z,9.83
2018-09-09T04:27:27.417Z,9.80
2018-09-09T04:29:56.065Z,10.17
2018-09-09T04:32:24.659Z,9.00
2018-09-09T04:34:53.366Z,10.00
2018-09-09T04:37:21.994Z,9.27
2018-09-09T04:39:50.606Z,9.47
2018-09-09T04:42:19.299Z,10.80
2018-09-09T04:44:47.907Z,9.47
2018-09-09T04:47:16.531Z,9.07
2018-09-09T04:49:46.098Z,10.30
2018-09-09T04:52:14.723Z,9.23
2018-09-09T04:54:43.325Z,9.93
2018-09-09T04:57:11.934Z,9.20
2018-09-09T04:59:40.586Z,9.63
2018-09-09T05:02:09.191Z,9.63
2018-09-09T05:04:37.840Z,9.60
2018-09-09T05:07:06.441Z,9.30
2018-09-09T05:09:35.059Z,9.80
2018-09-09T05:12:03.689Z,9.67
2018-09-09T05:14:32.357Z,8.43
2018-09-09T05:17:00.997Z,10.53
2018-09-09T05:19:29.614Z,9.37
2018-09-09T05:21:58.227Z,9.30
2018-09-09T05:24:26.827Z,9.30
2018-09-09T05:26:55.481Z,9.00
2018-09-09T05:29:24.087Z,8.83
2018-09-09T05:31:52.695Z,9.83
2018-09-09T05:34:21.350Z,9.00
2018-09-09T05:36:50.589Z,8.90
2018-09-09T05:39:19.266Z,9.10
2018-09-09T05:41:48.630Z,10.33
2018-09-09T05:44:17.226Z,10.50
2018-09-09T05:46:45.796Z,9.90
2018-09-09T05:49:14.390Z,9.53
2018-09-09T05:51:42.996Z,9.63
2018-09-09T05:54:11.615Z,9.23
2018-09-09T05:56:40.235Z,9.80
2018-09-09T05:59:08.878Z,11.07
2018-09-09T06:01:37.485Z,12.23
2018-09-09T06:04:06.130Z,12.27
2018-09-09T06:06:34.760Z,12.00
2018-09-09T06:09:03.619Z,11.10
2018-09-09T06:11:32.205Z,9.83
2018-09-09T06:14:00.840Z,10.00
2018-09-09T06:16:29.450Z,9.53
2018-09-09T06:18:58.121Z,10.67
2018-09-09T06:21:26.764Z,10.07
2018-09-09T06:23:55.359Z,9.80
2018-09-09T06:26:23.969Z,9.37
2018-09-09T06:28:53.815Z,8.10
2018-09-09T06:31:22.402Z,8.90
2018-09-09T06:33:51.096Z,8.97
2018-09-09T06:36:19.680Z,7.70
2018-09-09T06:38:48.299Z,8.23
2018-09-09T06:41:16.916Z,7.93
2018-09-09T06:43:45.494Z,7.50
2018-09-09T06:46:14.129Z,8.37
2018-09-09T06:48:42.769Z,8.20
2018-09-09T06:51:11.448Z,6.83
2018-09-09T06:53:40.018Z,7.10
2018-09-09T06:56:08.670Z,7.57
2018-09-09T06:58:37.483Z,7.07
2018-09-09T07:01:06.250Z,7.43
2018-09-09T07:03:35.454Z,7.37
2018-09-09T07:06:04.280Z,7.37
2018-09-09T07:08:32.894Z,7.50
2018-09-09T07:11:01.701Z,8.03
2018-09-09T07:13:30.177Z,7.43
2018-09-09T07:15:58.808Z,8.13
2018-09-09T07:18:27.424Z,7.70
2018-09-09T07:20:56.329Z,8.93
2018-09-09T07:23:25.214Z,8.73
2018-09-09T07:25:53.823Z,9.60
2018-09-09T07:28:22.458Z,10.20
2018-09-09T07:30:51.042Z,9.93
2018-09-09T07:33:19.727Z,10.23
2018-09-09T07:35:48.464Z,9.47
2018-09-09T07:38:17.076Z,8.50
2018-09-09T07:40:45.761Z,9.60
2018-09-09T07:43:14.415Z,9.23
2018-09-09T07:45:43.052Z,9.20
2018-09-09T07:48:11.677Z,9.30
2018-09-09T07:50:40.419Z,9.17
2018-09-09T07:53:09.038Z,8.77
2018-09-09T07:55:37.685Z,9.80
2018-09-09T07:58:06.886Z,10.47
2018-09-09T08:00:35.622Z,9.93
2018-09-09T08:03:04.345Z,14.10
2018-09-09T08:05:33.067Z,15.10
2018-09-09T08:08:02.835Z,15.40
2018-09-09T08:10:31.422Z,17.80
2018-09-09T08:13:00.220Z,17.20
2018-09-09T08:15:28.857Z,16.50
2018-09-09T08:17:57.513Z,15.40
2018-09-09T08:20:26.570Z,15.73
2018-09-09T08:22:55.754Z,14.70
2018-09-09T08:25:24.775Z,14.87
2018-09-09T08:27:53.807Z,15.90
2018-09-09T08:30:22.442Z,14.80
2018-09-09T08:32:51.344Z,15.70
2018-09-09T08:35:19.977Z,14.63
2018-09-09T08:37:48.603Z,14.90
2018-09-09T08:40:17.232Z,13.63
2018-09-09T08:42:45.897Z,15.30
2018-09-09T08:45:14.558Z,15.40
2018-09-09T08:47:43.347Z,16.20
2018-09-09T08:50:11.958Z,16.17
2018-09-09T08:52:40.591Z,15.33
2018-09-09T08:55:09.225Z,15.00
2018-09-09T08:57:37.907Z,16.53
2018-09-09T09:00:07.606Z,17.00
2018-09-09T09:02:36.250Z,16.83
2018-09-09T09:05:06.046Z,15.83
2018-09-09T09:07:34.787Z,16.97
2018-09-09T09:10:03.362Z,15.50
2018-09-09T09:12:31.985Z,15.37
2018-09-09T09:15:00.636Z,16.20
2018-09-09T09:17:29.261Z,14.83
2018-09-09T09:19:57.910Z,15.57
2018-09-09T09:22:33.307Z,16.47
2018-09-09T09:25:01.954Z,15.07
2018-09-09T09:27:30.509Z,15.33
2018-09-09T09:29:59.540Z,15.77
2018-09-09T09:32:28.191Z,14.40
2018-09-09T09:34:57.103Z,15.97
2018-09-09T09:37:26.477Z,14.80
2018-09-09T09:39:55.921Z,13.83
2018-09-09T09:42:25.243Z,14.23
2018-09-09T09:44:53.929Z,13.53
2018-09-09T09:47:22.557Z,13.40
2018-09-09T09:49:51.163Z,11.47
2018-09-09T09:52:19.997Z,9.30
2018-09-09T09:54:48.619Z,12.40
2018-09-09T09:57:17.239Z,13.37
2018-09-09T09:59:45.897Z,12.60
2018-09-09T10:02:14.626Z,11.67
2018-09-09T10:04:43.268Z,10.87
2018-09-09T10:07:12.760Z,10.97
2018-09-09T10:09:41.380Z,9.60
2018-09-09T10:12:10.706Z,9.73
2018-09-09T10:14:39.320Z,8.47
2018-09-09T10:17:08.001Z,7.27
2018-09-09T10:19:36.766Z,7.43
2018-09-09T10:22:05.419Z,7.67
2018-09-09T10:24:34.066Z,5.30
2018-09-09T10:27:02.705Z,4.97
2018-09-09T10:29:31.382Z,5.07
2018-09-09T10:32:00.003Z,5.43
2018-09-09T10:34:28.615Z,5.93
2018-09-09T10:36:57.708Z,5.80
2018-09-09T10:39:26.319Z,5.80
2018-09-09T10:41:54.926Z,7.73
2018-09-09T10:44:23.514Z,8.17
2018-09-09T10:46:52.211Z,8.07
2018-09-09T10:49:21.985Z,7.80
2018-09-09T10:51:50.654Z,6.40
2018-09-09T10:54:19.307Z,8.80
2018-09-09T10:56:47.939Z,7.17
2018-09-09T10:59:17.709Z,5.93
2018-09-09T11:01:47.038Z,5.87
2018-09-09T11:04:16.612Z,6.57
2018-09-09T11:06:45.484Z,6.60
2018-09-09T11:09:14.465Z,6.13
2018-09-09T11:11:43.274Z,5.27
2018-09-09T11:14:12.103Z,5.13
2018-09-09T11:16:41.212Z,5.37
2018-09-09T11:19:09.923Z,4.53
2018-09-09T11:21:38.710Z,5.50
2018-09-09T11:24:07.584Z,5.90
2018-09-09T11:26:36.355Z,5.70
2018-09-09T11:29:04.977Z,5.90
2018-09-09T11:31:33.685Z,5.60
2018-09-09T11:34:02.397Z,4.83
2018-09-09T11:36:31.058Z,5.27
2018-09-09T11:38:59.656Z,4.57
2018-09-09T11:41:28.327Z,4.90
2018-09-09T11:43:57.675Z,5.07
2018-09-09T11:46:26.315Z,4.90
2018-09-09T11:48:55.000Z,4.60
2018-09-09T11:51:23.625Z,5.40
2018-09-09T11:53:52.238Z,5.20
2018-09-09T11:56:21.587Z,5.17
2018-09-09T11:58:50.223Z,4.57
2018-09-09T12:01:19.102Z,4.63
2018-09-09T12:03:47.743Z,4.47
2018-09-09T12:06:16.367Z,4.87
2018-09-09T12:08:44.978Z,5.00
2018-09-09T12:11:13.590Z,5.27
2018-09-09T12:13:42.239Z,4.70
2018-09-09T12:16:10.869Z,5.20
2018-09-09T12:18:39.590Z,5.33
2018-09-09T12:21:08.342Z,5.30
2018-09-09T12:23:37.037Z,4.40
2018-09-09T12:26:05.609Z,4.03
2018-09-09T12:28:34.262Z,4.77
2018-09-09T12:31:02.832Z,4.50
2018-09-09T12:33:31.465Z,4.20
2018-09-09T12:36:00.098Z,4.40
2018-09-09T12:38:28.724Z,3.67
2018-09-09T12:40:57.370Z,3.87
2018-09-09T12:43:31.153Z,3.77
2018-09-09T12:46:04.881Z,3.87
2018-09-09T12:48:38.655Z,3.90
2018-09-09T12:51:07.282Z,4.00
2018-09-09T12:53:35.902Z,3.90
2018-09-09T12:56:04.563Z,4.07
2018-09-09T12:58:33.256Z,3.13
2018-09-09T13:01:01.937Z,3.30
2018-09-09T13:03:30.545Z,3.70
2018-09-09T13:05:59.182Z,3.70
2018-09-09T13:08:27.805Z,4.13
2018-09-09T13:10:56.595Z,3.10
2018-09-09T13:13:26.296Z,3.80
2018-09-09T13:15:54.965Z,3.90
2018-09-09T13:18:23.590Z,3.67
2018-09-09T13:20:52.202Z,3.60
2018-09-09T13:23:20.836Z,3.20
2018-09-09T13:25:49.514Z,3.90
2018-09-09T13:28:18.158Z,3.53
2018-09-09T13:30:46.808Z,3.23
2018-09-09T13:33:15.475Z,3.40
2018-09-09T13:35:44.094Z,3.80
2018-09-09T13:38:12.770Z,4.00
2018-09-09T13:40:41.433Z,4.17
2018-09-09T13:43:10.112Z,3.90
2018-09-09T13:45:38.757Z,4.13
2018-09-09T13:48:08.152Z,3.60
2018-09-09T13:50:36.814Z,3.70
2018-09-09T13:53:05.602Z,3.93
2018-09-09T13:55:34.373Z,4.17
2018-09-09T13:58:03.004Z,4.30
2018-09-09T14:00:31.659Z,3.83
2018-09-09T14:03:00.290Z,4.00
2018-09-09T14:05:29.259Z,4.87
2018-09-09T14:07:57.878Z,4.40
2018-09-09T14:10:26.501Z,4.57
2018-09-09T14:12:55.107Z,4.20
2018-09-09T14:15:23.806Z,3.37
2018-09-09T14:17:52.416Z,3.70
2018-09-09T14:20:21.033Z,3.60
2018-09-09T14:22:49.625Z,3.93
2018-09-09T14:25:18.254Z,3.50
2018-09-09T14:27:46.911Z,3.80
2018-09-09T14:30:15.531Z,4.10
2018-09-09T14:32:44.158Z,3.60
2018-09-09T14:35:12.763Z,3.07
2018-09-09T14:37:41.391Z,3.70
2018-09-09T14:40:10.205Z,3.57
2018-09-09T14:42:38.809Z,3.73
2018-09-09T14:45:07.509Z,3.50
2018-09-09T14:47:42.628Z,4.10
2018-09-09T14:50:11.269Z,3.83
2018-09-09T14:52:40.298Z,3.00
2018-09-09T14:55:08.940Z,4.03
2018-09-09T14:57:37.653Z,3.83
2018-09-09T15:00:06.336Z,3.27
2018-09-09T15:02:36.118Z,3.57
2018-09-09T15:05:04.758Z,3.33
2018-09-09T15:07:33.954Z,3.63
2018-09-09T15:10:02.638Z,3.40
2018-09-09T15:12:31.226Z,3.43
2018-09-09T15:14:59.850Z,3.53
2018-09-09T15:17:28.496Z,3.10
2018-09-09T15:19:58.180Z,3.50
2018-09-09T15:22:26.792Z,3.83
2018-09-09T15:24:55.454Z,2.47
2018-09-09T15:27:24.089Z,3.07
2018-09-09T15:29:52.689Z,2.80
2018-09-09T15:32:21.277Z,3.03
2018-09-09T15:34:49.946Z,2.60
2018-09-09T15:37:18.567Z,3.03
2018-09-09T15:39:47.194Z,3.17
2018-09-09T15:42:15.793Z,2.80
2018-09-09T15:44:44.433Z,3.10
2018-09-09T15:47:13.053Z,4.23
2018-09-09T15:49:41.650Z,3.60
2018-09-09T15:52:10.359Z,3.90
2018-09-09T15:54:39.894Z,3.33
2018-09-09T15:57:08.533Z,4.30
2018-09-09T15:59:37.952Z,4.07
2018-09-09T16:02:06.758Z,3.87
2018-09-09T16:04:35.584Z,4.20
2018-09-09T16:07:04.259Z,4.70
2018-09-09T16:09:32.998Z,5.00
2018-09-09T16:12:01.698Z,4.90
2018-09-09T16:14:30.350Z,4.80
2018-09-09T16:16:59.075Z,5.20
2018-09-09T16:19:27.720Z,4.57
2018-09-09T16:21:56.400Z,5.03
2018-09-09T16:24:25.088Z,4.73
2018-09-09T16:26:53.690Z,5.00
2018-09-09T16:29:22.325Z,5.70
2018-09-09T16:31:50.960Z,5.60
2018-09-09T16:34:19.613Z,5.63
2018-09-09T16:36:48.282Z,6.07
2018-09-09T16:39:16.945Z,5.60
2018-09-09T16:41:45.608Z,5.73
2018-09-09T16:44:14.359Z,5.93
2018-09-09T16:46:44.016Z,6.00
2018-09-09T16:49:12.637Z,5.60
2018-09-09T16:51:41.282Z,5.30
2018-09-09T16:54:09.979Z,6.30
2018-09-09T16:56:38.642Z,5.93
2018-09-09T16:59:07.316Z,6.00
2018-09-09T17:01:35.973Z,5.80
2018-09-09T17:04:04.613Z,6.57
2018-09-09T17:06:33.222Z,5.80
2018-09-09T17:09:01.872Z,5.53
2018-09-09T17:11:30.510Z,5.97
2018-09-09T17:13:59.113Z,5.73
2018-09-09T17:16:27.806Z,6.13
2018-09-09T17:18:56.397Z,5.87
2018-09-09T17:21:24.994Z,7.03
2018-09-09T17:23:53.584Z,7.27
2018-09-09T17:26:22.212Z,6.27
2018-09-09T17:28:50.870Z,6.43
2018-09-09T17:31:19.490Z,6.13
2018-09-09T17:33:48.598Z,6.03
2018-09-09T17:36:17.218Z,6.50
2018-09-09T17:38:46.253Z,6.47
2018-09-09T17:41:14.910Z,6.90
2018-09-09T17:43:43.579Z,7.27
2018-09-09T17:46:12.297Z,8.30
2018-09-09T17:48:40.979Z,8.03
2018-09-09T17:51:09.747Z,8.00
2018-09-09T17:53:38.489Z,8.10
2018-09-09T17:56:07.151Z,8.73
2018-09-09T17:58:35.756Z,7.63
2018-09-09T18:01:04.457Z,8.10
2018-09-09T18:03:33.105Z,8.13
2018-09-09T18:06:01.761Z,8.40
2018-09-09T18:08:30.350Z,8.60
2018-09-09T18:10:58.998Z,8.70
2018-09-09T18:13:27.625Z,9.50
2018-09-09T18:15:56.306Z,10.90
2018-09-09T18:18:24.986Z,9.43
2018-09-09T18:20:53.767Z,9.50
2018-09-09T18:23:22.471Z,9.43
2018-09-09T18:25:51.287Z,10.93
2018-09-09T18:28:19.926Z,10.77
2018-09-09T18:30:48.523Z,11.30
2018-09-09T18:33:17.421Z,11.27
2018-09-09T18:35:46.847Z,10.20
2018-09-09T18:38:15.550Z,10.23
2018-09-09T18:40:44.538Z,11.53
2018-09-09T18:43:13.305Z,11.50
2018-09-09T18:45:41.957Z,11.30
2018-09-09T18:48:10.744Z,11.40
2018-09-09T18:50:39.396Z,11.07
2018-09-09T18:53:08.597Z,10.90
2018-09-09T18:55:37.198Z,11.73
2018-09-09T18:58:05.867Z,11.50
2018-09-09T19:00:34.463Z,13.07
2018-09-09T19:03:03.115Z,12.80
2018-09-09T19:05:32.021Z,10.90
2018-09-09T19:08:00.654Z,12.53
2018-09-09T19:10:29.434Z,11.10
2018-09-09T19:12:58.091Z,10.60
2018-09-09T19:15:26.775Z,9.80
2018-09-09T19:17:55.526Z,9.13
2018-09-09T19:20:24.146Z,9.00
2018-09-09T19:22:52.758Z,9.17
2018-09-09T19:25:21.400Z,9.60
2018-09-09T19:27:50.059Z,9.00
2018-09-09T19:30:18.798Z,8.43
2018-09-09T19:32:48.323Z,8.90
2018-09-09T19:35:16.926Z,9.27
2018-09-09T19:37:46.339Z,8.30
2018-09-09T19:40:14.987Z,8.13
2018-09-09T19:42:43.675Z,8.73
2018-09-09T19:45:12.364Z,8.70
2018-09-09T19:47:41.033Z,9.17
2018-09-09T19:50:09.667Z,8.47
2018-09-09T19:52:38.352Z,8.60
2018-09-09T19:55:07.094Z,8.87
2018-09-09T19:57:38.097Z,8.80
2018-09-09T20:00:06.853Z,11.10
2018-09-09T20:02:35.513Z,9.23
2018-09-09T20:05:04.181Z,9.00
2018-09-09T20:07:32.854Z,8.03
2018-09-09T20:10:01.661Z,9.10
2018-09-09T20:12:30.303Z,8.10
2018-09-09T20:14:58.982Z,7.90
2018-09-09T20:17:27.681Z,8.90
2018-09-09T20:19:56.311Z,9.13
2018-09-09T20:22:24.978Z,8.80
2018-09-09T20:24:53.612Z,8.00
2018-09-09T20:27:22.891Z,8.67
2018-09-09T20:29:51.454Z,8.17
2018-09-09T20:32:20.103Z,7.70
2018-09-09T20:34:48.741Z,7.40
2018-09-09T20:37:17.461Z,8.00
2018-09-09T20:39:46.166Z,7.53
2018-09-09T20:42:14.891Z,7.80
2018-09-09T20:44:43.520Z,8.33
2018-09-09T20:47:12.145Z,7.27
2018-09-09T20:49:40.766Z,7.73
2018-09-09T20:52:09.373Z,7.80
2018-09-09T20:54:37.953Z,8.13
2018-09-09T20:57:06.587Z,7.57
2018-09-09T20:59:35.227Z,7.63
2018-09-09T21:02:04.016Z,8.10
2018-09-09T21:04:32.718Z,8.10
2018-09-09T21:07:01.320Z,8.27
2018-09-09T21:09:30.011Z,7.70
2018-09-09T21:11:58.591Z,8.40
2018-09-09T21:14:27.197Z,7.90
2018-09-09T21:16:55.826Z,7.20
2018-09-09T21:19:24.415Z,7.17
2018-09-09T21:21:53.049Z,7.97
2018-09-09T21:24:21.636Z,8.03
2018-09-09T21:26:50.242Z,9.00
2018-09-09T21:29:18.851Z,6.80
2018-09-09T21:31:47.422Z,7.30
2018-09-09T21:34:16.056Z,8.53
2018-09-09T21:36:44.651Z,8.20
2018-09-09T21:39:13.250Z,8.47
2018-09-09T21:41:42.369Z,7.63
2018-09-09T21:44:11.008Z,7.80
2018-09-09T21:46:39.581Z,7.40
2018-09-09T21:49:08.538Z,7.00
2018-09-09T21:51:37.117Z,7.57
2018-09-09T21:54:06.055Z,7.30
2018-09-09T21:56:34.719Z,7.80
2018-09-09T21:59:03.929Z,7.40
2018-09-09T22:01:37.736Z,8.37
2018-09-09T22:04:06.339Z,7.83
2018-09-09T22:06:34.977Z,7.30
2018-09-09T22:09:04.525Z,7.73
2018-09-09T22:11:33.223Z,7.63
2018-09-09T22:14:01.828Z,7.90
2018-09-09T22:16:30.468Z,8.77
2018-09-09T22:21:32.803Z,9.10
2018-09-09T22:24:01.402Z,6.90
2018-09-09T22:26:30.013Z,7.07
2018-09-09T22:28:58.605Z,7.40
2018-09-09T22:31:27.174Z,7.13
2018-09-09T22:33:55.769Z,7.67
2018-09-09T22:36:24.377Z,6.90
2018-09-09T22:38:53.003Z,7.30
2018-09-09T22:41:21.601Z,7.53
2018-09-09T22:43:50.238Z,7.47
2018-09-09T22:46:18.837Z,7.60
2018-09-09T22:48:47.447Z,7.97
2018-09-09T22:51:16.058Z,7.50
2018-09-09T22:53:44.650Z,6.83
2018-09-09T22:56:13.444Z,7.67
2018-09-09T22:58:42.126Z,7.63
2018-09-09T23:01:10.762Z,7.77
2018-09-09T23:03:39.369Z,7.70
2018-09-09T23:06:08.023Z,7.47
2018-09-09T23:08:36.630Z,7.73
2018-09-09T23:11:05.281Z,8.03
2018-09-09T23:13:33.968Z,7.57
2018-09-09T23:16:02.556Z,8.10
2018-09-09T23:18:31.234Z,7.27
2018-09-09T23:20:59.826Z,7.70
2018-09-09T23:23:28.428Z,7.57
2018-09-09T23:25:57.283Z,7.37
2018-09-09T23:28:25.893Z,7.43
2018-09-09T23:30:54.479Z,7.73
2018-09-09T23:33:23.048Z,8.37
2018-09-09T23:35:51.639Z,7.83
2018-09-09T23:38:20.225Z,7.80
2018-09-09T23:40:49.110Z,7.43
2018-09-09T23:43:17.862Z,8.30
2018-09-09T23:45:46.450Z,8.50
2018-09-09T23:48:15.045Z,7.20
2018-09-09T23:50:43.658Z,7.20
2018-09-09T23:53:12.262Z,9.03
2018-09-09T23:55:40.883Z,8.00
2018-09-09T23:58:09.498Z,8.30
